| time (UTC) | temp C | wind direction | speed KPH | gust KPH | rain 1hr cm | rain 24hr cm | rain mn cm | humidity % | barometer mb |
| 20260906101516 | 36 | 338 | 14.5 | 24.1 | 0.00 | 0.00 | 0.00 | 27 | 1011.6 |
| 20260906100517 | 36 | 0 | 14.5 | 20.9 | 0.00 | 0.00 | 0.00 | 29 | 1011.6 |
| 20260906095517 | 36 | 0 | 16.1 | 27.4 | 0.00 | 0.00 | 0.00 | 28 | 1011.6 |
| 20260906094526 | 36 | 338 | 16.1 | 27.4 | 0.00 | 0.00 | 0.00 | 29 | 1011.7 |
| 20260906093516 | 36 | 338 | 19.3 | 27.4 | 0.00 | 0.00 | 0.00 | 28 | 1011.7 |
| 20260906092517 | 36 | 338 | 20.9 | 29.0 | 0.00 | 0.00 | 0.00 | 28 | 1011.7 |
| 20260906091517 | 36 | 338 | 20.9 | 29.0 | 0.00 | 0.00 | 0.00 | 28 | 1011.8 |
| 20260906090516 | 36 | 338 | 17.7 | 25.7 | 0.00 | 0.00 | 0.00 | 28 | 1011.8 |
| 20260906085516 | 36 | 338 | 16.1 | 27.4 | 0.00 | 0.00 | 0.00 | 28 | 1011.8 |
| 20260906084516 | 36 | 338 | 14.5 | 24.1 | 0.00 | 0.00 | 0.00 | 30 | 1011.9 |
| 20260906083516 | 36 | 338 | 12.9 | 25.7 | 0.00 | 0.00 | 0.00 | 30 | 1011.9 |
| 20260906082516 | 36 | 0 | 14.5 | 20.9 | 0.00 | 0.00 | 0.00 | 29 | 1011.8 |
| 20260906081516 | 35 | 0 | 17.7 | 24.1 | 0.00 | 0.00 | 0.00 | 31 | 1011.9 |
| 20260906080516 | 35 | 315 | 16.1 | 29.0 | 0.00 | 0.00 | 0.00 | 32 | 1011.9 |
| 20260906075516 | 35 | 338 | 14.5 | 24.1 | 0.00 | 0.00 | 0.00 | 32 | 1011.9 |
| 20260906074516 | 35 | 338 | 17.7 | 25.7 | 0.00 | 0.00 | 0.00 | 33 | 1011.9 |
| 20260906073516 | 35 | 0 | 17.7 | 24.1 | 0.00 | 0.00 | 0.00 | 32 | 1011.9 |
| 20260906072516 | 35 | 0 | 11.3 | 22.5 | 0.00 | 0.00 | 0.00 | 33 | 1011.9 |
| 20260906071516 | 34 | 0 | 12.9 | 20.9 | 0.00 | 0.00 | 0.00 | 33 | 1011.9 |
| 20260906070516 | 34 | 0 | 12.9 | 22.5 | 0.00 | 0.00 | 0.00 | 33 | 1011.7 |
| 20260906065516 | 33 | 0 | 12.9 | 22.5 | 0.00 | 0.00 | 0.00 | 34 | 1011.6 |
| 20260906064536 | 33 | 23 | 14.5 | 22.5 | 0.00 | 0.00 | 0.00 | 34 | 1011.6 |
| 20260906063516 | 33 | 0 | 12.9 | 20.9 | 0.00 | 0.00 | 0.00 | 34 | 1011.6 |
| 20260906062536 | 33 | 0 | 9.7 | 17.7 | 0.00 | 0.00 | 0.00 | 34 | 1011.4 |
| 20260906061516 | 33 | 0 | 9.7 | 19.3 | 0.00 | 0.00 | 0.00 | 35 | 1011.3 |
| 20260906060516 | 33 | 23 | 4.8 | 11.3 | 0.00 | 0.00 | 0.00 | 35 | 1011.3 |
| 20260906055516 | 32 | 23 | 3.2 | 6.4 | 0.00 | 0.00 | 0.00 | 35 | 1011.2 |
| 20260906054516 | 32 | 0 | 6.4 | 14.5 | 0.00 | 0.00 | 0.00 | 36 | 1011.2 |
| 20260906053516 | 31 | 158 | 3.2 | 6.4 | 0.00 | 0.00 | 0.00 | 40 | 1011.1 |
| 20260906052516 | 30 | 180 | 1.6 | 3.2 | 0.00 | 0.00 | 0.00 | 45 | 1011.0 |
| 20260906051536 | 31 | 45 | 1.6 | 4.8 | 0.00 | 0.00 | 0.00 | 38 | 1011.0 |
| 20260906050516 | 31 | 45 | 3.2 | 6.4 | 0.00 | 0.00 | 0.00 | 38 | 1010.9 |
| 20260906045536 | 30 | 135 | 3.2 | 4.8 | 0.00 | 0.00 | 0.00 | 47 | 1010.8 |
| 20260906044516 | 29 | 90 | 3.2 | 6.4 | 0.00 | 0.00 | 0.00 | 48 | 1010.8 |
| 20260906043516 | 31 | 23 | 3.2 | 11.3 | 0.00 | 0.00 | 0.00 | 37 | 1010.7 |
| 20260906042516 | 31 | 23 | 8.0 | 14.5 | 0.00 | 0.00 | 0.00 | 37 | 1010.6 |
| 20260906041536 | 30 | 0 | 3.2 | 8.0 | 0.00 | 0.00 | 0.00 | 38 | 1010.5 |
| 20260906040516 | 30 | 0 | 6.4 | 12.9 | 0.00 | 0.00 | 0.00 | 38 | 1010.5 |
| 20260906035516 | 30 | 338 | 8.0 | 16.1 | 0.00 | 0.00 | 0.00 | 38 | 1010.5 |
| 20260906034516 | 30 | 338 | 9.7 | 19.3 | 0.00 | 0.00 | 0.00 | 39 | 1010.5 |
| 20260906033516 | 30 | 0 | 4.8 | 9.7 | 0.00 | 0.00 | 0.00 | 40 | 1010.4 |
| 20260906032516 | 29 | 338 | 6.4 | 12.9 | 0.00 | 0.00 | 0.00 | 42 | 1010.2 |
| 20260906031536 | 28 | 338 | 8.0 | 14.5 | 0.00 | 0.00 | 0.00 | 45 | 1010.2 |
| 20260906030518 | 28 | 338 | 12.9 | 17.7 | 0.00 | 0.00 | 0.00 | 45 | 1010.2 |
| 20260906025538 | 29 | 338 | 16.1 | 24.1 | 0.00 | 0.00 | 0.00 | 44 | 1010.1 |
| 20260906024516 | 28 | 338 | 14.5 | 22.5 | 0.00 | 0.00 | 0.00 | 44 | 1010.1 |
| 20260906023518 | 29 | 0 | 4.8 | 8.0 | 0.00 | 0.00 | 0.00 | 44 | 1010.2 |
| 20260906022518 | 30 | 0 | 4.8 | 8.0 | 0.00 | 0.00 | 0.00 | 42 | 1010.4 |
| 20260906021538 | 29 | 338 | 8.0 | 14.5 | 0.00 | 0.00 | 0.00 | 42 | 1010.3 |
| 20260906020518 | 28 | 338 | 4.8 | 8.0 | 0.00 | 0.00 | 0.00 | 44 | 1010.4 |
| 20260906015517 | 28 | 0 | 1.6 | 3.2 | 0.00 | 0.00 | 0.00 | 45 | 1010.3 |
| 20260906014538 | 28 | 0 | 6.4 | 9.7 | 0.00 | 0.00 | 0.00 | 45 | 1010.4 |
| 20260906013538 | 28 | 338 | 4.8 | 9.7 | 0.00 | 0.00 | 0.00 | 45 | 1010.5 |
| 20260906012518 | 28 | 338 | 4.8 | 8.0 | 0.00 | 0.00 | 0.00 | 44 | 1010.5 |
| 20260906011518 | 28 | 338 | 4.8 | 6.4 | 0.00 | 0.00 | 0.00 | 45 | 1010.5 |
| 20260906010517 | 28 | 315 | 1.6 | 3.2 | 0.00 | 0.00 | 0.00 | 46 | 1010.5 |
| 20260906005538 | 29 | 135 | 1.6 | 4.8 | 0.00 | 0.00 | 0.00 | 45 | 1010.4 |
| 20260906004518 | 29 | 158 | 3.2 | 6.4 | 0.00 | 0.00 | 0.00 | 47 | 1010.3 |
| 20260906003516 | 30 | 293 | 1.6 | 3.2 | 0.00 | 0.00 | 0.00 | 40 | 1010.3 |
| 20260906002518 | 29 | 90 | 1.6 | 4.8 | 0.00 | 0.00 | 0.00 | 42 | 1010.2 |
| 20260906001517 | 30 | 0 | 3.2 | 6.4 | 0.00 | 0.00 | 0.00 | 39 | 1010.2 |
| 20260906000518 | 30 | 293 | 4.8 | 11.3 | 0.00 | 0.00 | 0.00 | 40 | 1010.3 |
| 20260905235517 | 29 | 225 | 3.2 | 8.0 | 0.00 | 0.00 | 0.00 | 45 | 1010.4 |
| 20260905234537 | 29 | 135 | 3.2 | 4.8 | 0.00 | 0.00 | 0.00 | 45 | 1010.4 |
| 20260905233517 | 30 | 0 | 1.6 | 8.0 | 0.00 | 0.00 | 0.00 | 43 | 1010.4 |
| 20260905232518 | 29 | 90 | 1.6 | 4.8 | 0.00 | 0.00 | 0.00 | 45 | 1010.4 |
| 20260905231517 | 29 | 248 | 1.6 | 3.2 | 0.00 | 0.00 | 0.00 | 45 | 1010.5 |
| 20260905230518 | 30 | 0.0 | 1.6 | 0.00 | 0.00 | 0.00 | 46 | 1010.6 | |
| 20260905225517 | 30 | 45 | 1.6 | 3.2 | 0.00 | 0.00 | 0.00 | 43 | 1010.5 |
| 20260905224517 | 30 | 23 | 1.6 | 4.8 | 0.00 | 0.00 | 0.00 | 41 | 1010.6 |
| 20260905223517 | 30 | 0 | 3.2 | 4.8 | 0.00 | 0.00 | 0.00 | 41 | 1010.6 |
| 20260905222538 | 30 | 338 | 4.8 | 8.0 | 0.00 | 0.00 | 0.00 | 43 | 1010.7 |
| 20260905221518 | 30 | 0 | 6.4 | 14.5 | 0.00 | 0.00 | 0.00 | 40 | 1010.7 |
| 20260905220518 | 30 | 338 | 6.4 | 14.5 | 0.00 | 0.00 | 0.00 | 39 | 1010.7 |
| 20260905215518 | 31 | 0 | 6.4 | 17.7 | 0.00 | 0.00 | 0.00 | 37 | 1010.7 |
| 20260905214517 | 31 | 0 | 6.4 | 17.7 | 0.00 | 0.00 | 0.00 | 37 | 1010.7 |
| 20260905213538 | 31 | 0 | 3.2 | 8.0 | 0.00 | 0.00 | 0.00 | 36 | 1010.8 |
| 20260905212517 | 31 | 0 | 3.2 | 8.0 | 0.00 | 0.00 | 0.00 | 36 | 1011.0 |
| 20260905211517 | 30 | 0 | 6.4 | 12.9 | 0.00 | 0.00 | 0.00 | 37 | 1011.0 |
| 20260905210518 | 31 | 0 | 6.4 | 11.3 | 0.00 | 0.00 | 0.00 | 38 | 1010.9 |
| 20260905205516 | 30 | 338 | 4.8 | 11.3 | 0.00 | 0.00 | 0.00 | 38 | 1011.0 |
| 20260905204517 | 30 | 0 | 1.6 | 3.2 | 0.00 | 0.00 | 0.00 | 43 | 1011.1 |
| 20260905203517 | 29 | 0 | 4.8 | 6.4 | 0.00 | 0.00 | 0.00 | 44 | 1011.1 |
| 20260905202517 | 29 | 0 | 4.8 | 6.4 | 0.00 | 0.00 | 0.00 | 45 | 1011.1 |
| 20260905201517 | 30 | 23 | 3.2 | 8.0 | 0.00 | 0.00 | 0.00 | 41 | 1011.2 |
| 20260905200517 | 30 | 0 | 1.6 | 4.8 | 0.00 | 0.00 | 0.00 | 47 | 1011.2 |
| 20260905194517 | 31 | 315 | 6.4 | 11.3 | 0.00 | 0.00 | 0.00 | 39 | 1011.2 |
| 20260905193516 | 31 | 338 | 6.4 | 14.5 | 0.00 | 0.00 | 0.00 | 40 | 1011.1 |
| 20260905192517 | 30 | 0 | 6.4 | 14.5 | 0.00 | 0.00 | 0.00 | 42 | 1011.2 |
| 20260905191517 | 30 | 0 | 12.9 | 19.3 | 0.00 | 0.00 | 0.00 | 43 | 1011.2 |
| 20260905190516 | 30 | 0 | 9.7 | 19.3 | 0.00 | 0.00 | 0.00 | 43 | 1011.3 |
| 20260905185517 | 30 | 0 | 8.0 | 16.1 | 0.00 | 0.00 | 0.00 | 43 | 1011.2 |
| 20260905184516 | 30 | 338 | 14.5 | 20.9 | 0.00 | 0.00 | 0.00 | 43 | 1011.3 |
| 20260905183516 | 30 | 338 | 14.5 | 20.9 | 0.00 | 0.00 | 0.00 | 42 | 1011.4 |
| 20260905182517 | 31 | 338 | 12.9 | 24.1 | 0.00 | 0.00 | 0.00 | 41 | 1011.2 |
| 20260905181536 | 30 | 338 | 14.5 | 22.5 | 0.00 | 0.00 | 0.00 | 44 | 1011.2 |
| 20260905180536 | 30 | 0 | 16.1 | 20.9 | 0.00 | 0.00 | 0.00 | 49 | 1011.4 |
| 20260905175516 | 30 | 0 | 12.9 | 19.3 | 0.00 | 0.00 | 0.00 | 50 | 1011.2 |
| 20260905174516 | 30 | 338 | 4.8 | 9.7 | 0.00 | 0.00 | 0.00 | 57 | 1011.1 |
| 20260905173516 | 29 | 0 | 4.8 | 8.0 | 0.00 | 0.00 | 0.00 | 65 | 1011.1 |
| 20260905172516 | 30 | 0 | 4.8 | 8.0 | 0.00 | 0.00 | 0.00 | 67 | 1011.1 |
| 20260905171516 | 30 | 338 | 8.0 | 12.9 | 0.00 | 0.00 | 0.00 | 63 | 1011.0 |
| 20260905170517 | 31 | 0 | 8.0 | 14.5 | 0.00 | 0.00 | 0.00 | 43 | 1010.7 |
| 20260905165517 | 32 | 0 | 4.8 | 6.4 | 0.00 | 0.00 | 0.00 | 37 | 1010.5 |
| 20260905164517 | 33 | 293 | 3.2 | 6.4 | 0.00 | 0.00 | 0.00 | 37 | 1010.5 |
| 20260905163517 | 33 | 338 | 1.6 | 6.4 | 0.00 | 0.00 | 0.00 | 37 | 1010.6 |
| 20260905161517 | 33 | 225 | 3.2 | 6.4 | 0.00 | 0.00 | 0.00 | 37 | 1010.5 |
| 20260905160516 | 33 | 270 | 4.8 | 9.7 | 0.00 | 0.00 | 0.00 | 37 | 1010.5 |
| 20260905155516 | 33 | 248 | 4.8 | 11.3 | 0.00 | 0.00 | 0.00 | 38 | 1010.6 |
| 20260905154556 | 33 | 225 | 4.8 | 12.9 | 0.00 | 0.00 | 0.00 | 38 | 1010.7 |
| 20260905153517 | 33 | 180 | 4.8 | 9.7 | 0.00 | 0.00 | 0.00 | 38 | 1010.7 |
| 20260905152537 | 33 | 225 | 3.2 | 9.7 | 0.00 | 0.00 | 0.00 | 38 | 1010.8 |
| 20260905151516 | 33 | 203 | 3.2 | 8.0 | 0.00 | 0.00 | 0.00 | 36 | 1010.7 |
| 20260905150516 | 33 | 225 | 6.4 | 11.3 | 0.00 | 0.00 | 0.00 | 37 | 1010.7 |
| 20260905145516 | 33 | 180 | 8.0 | 14.5 | 0.00 | 0.00 | 0.00 | 38 | 1010.5 |
| 20260905144517 | 33 | 225 | 6.4 | 12.9 | 0.00 | 0.00 | 0.00 | 36 | 1010.5 |
| 20260905143516 | 32 | 203 | 8.0 | 12.9 | 0.00 | 0.00 | 0.00 | 43 | 1010.5 |
| 20260905142516 | 32 | 203 | 9.7 | 16.1 | 0.00 | 0.00 | 0.00 | 42 | 1010.4 |
| 20260905141516 | 32 | 203 | 9.7 | 16.1 | 0.00 | 0.00 | 0.00 | 45 | 1010.3 |
| 20260905140536 | 33 | 180 | 9.7 | 14.5 | 0.00 | 0.00 | 0.00 | 41 | 1010.2 |
| 20260905135516 | 33 | 180 | 11.3 | 17.7 | 0.00 | 0.00 | 0.00 | 38 | 1010.2 |
| 20260905134516 | 33 | 180 | 9.7 | 16.1 | 0.00 | 0.00 | 0.00 | 41 | 1010.3 |
| 20260905133516 | 33 | 180 | 8.0 | 16.1 | 0.00 | 0.00 | 0.00 | 41 | 1010.3 |
| 20260905132516 | 32 | 158 | 8.0 | 14.5 | 0.00 | 0.00 | 0.00 | 52 | 1010.3 |
| 20260905131516 | 31 | 180 | 9.7 | 11.3 | 0.00 | 0.00 | 0.00 | 52 | 1010.3 |
| 20260905130516 | 31 | 158 | 9.7 | 14.5 | 0.00 | 0.00 | 0.00 | 55 | 1010.4 |
| 20260905125516 | 32 | 180 | 9.7 | 14.5 | 0.00 | 0.00 | 0.00 | 52 | 1010.4 |
| 20260905124516 | 31 | 158 | 9.7 | 14.5 | 0.00 | 0.00 | 0.00 | 58 | 1010.4 |
| 20260905123516 | 31 | 158 | 11.3 | 16.1 | 0.00 | 0.00 | 0.00 | 57 | 1010.4 |
| 20260905122516 | 31 | 158 | 9.7 | 16.1 | 0.00 | 0.00 | 0.00 | 57 | 1010.5 |
| 20260905121516 | 31 | 158 | 11.3 | 16.1 | 0.00 | 0.00 | 0.00 | 59 | 1010.5 |
| 20260905120516 | 31 | 158 | 12.9 | 17.7 | 0.00 | 0.00 | 0.00 | 60 | 1010.7 |
| 20260905115516 | 31 | 158 | 12.9 | 19.3 | 0.00 | 0.00 | 0.00 | 59 | 1010.6 |
| 20260905114516 | 31 | 158 | 12.9 | 19.3 | 0.00 | 0.00 | 0.00 | 59 | 1010.6 |
| 20260905113536 | 31 | 158 | 12.9 | 17.7 | 0.00 | 0.00 | 0.00 | 59 | 1010.7 |
| 20260905112516 | 31 | 158 | 11.3 | 17.7 | 0.00 | 0.00 | 0.00 | 58 | 1010.8 |
| 20260905111516 | 30 | 180 | 11.3 | 17.7 | 0.00 | 0.00 | 0.00 | 57 | 1010.9 |
| 20260905110536 | 31 | 158 | 9.7 | 16.1 | 0.00 | 0.00 | 0.00 | 56 | 1010.9 |
| 20260905105516 | 31 | 180 | 8.0 | 14.5 | 0.00 | 0.00 | 0.00 | 54 | 1010.9 |
| 20260905104536 | 31 | 158 | 9.7 | 14.5 | 0.00 | 0.00 | 0.00 | 57 | 1011.0 |
| 20260905103516 | 31 | 180 | 8.0 | 11.3 | 0.00 | 0.00 | 0.00 | 55 | 1011.0 |
| 20260905102516 | 31 | 135 | 4.8 | 11.3 | 0.00 | 0.00 | 0.00 | 56 | 1011.0 |